Terminal Aerodrome Forecast
Issued by NWS Tampa Bay Area, FL

Home | Current Version | Previous Version | Text Only | Print | Product List | Glossary On
Versions: 1 2 3 4 5 6 7 8 9 10 11 12 13 14 15 16 17 18
000
FTUS42 KTBW 120700 AAB
TAFSRQ
TAF AMD
KSRQ 120728Z 1207/1306 VRB06G16KT 6SM TSRA SCT015CB BKN035
     FM120745 08004KT P6SM FEW030 SCT100 BKN250
     FM121600 18006KT P6SM SCT030 SCT250
     FM121800 23007KT P6SM VCTS SCT030CB SCT250
     FM130100 VRB05KT P6SM SCT040 BKN250=

USA.gov is the U.S. government's official web portal to all federal, state and local government web resources and services.